Terminal Aerodrome Forecast
Issued by NWS

Home | Current Version | Previous Version | Text Only | Print | Product List | Glossary On
Versions: 1 2 3 4 5 6 7 8 9 10 11 12 13 14 15 16 17 18 19 20 21 22 23 24 25 26 27 28 29 30 31
000
FTUS41 KCTP 301738
TAFUNV
TAF
KUNV 301738Z 3018/0118 09006KT P6SM BKN025 OVC035
     FM301900 12005KT P6SM OVC035
     FM010300 15006KT 4SM -RA BR BKN009 OVC015
     FM010800 16010KT 2SM -RA BR OVC004
     FM011600 17007KT 5SM -SHRA BR OVC009=

USA.gov is the U.S. government's official web portal to all federal, state and local government web resources and services.